sensor_id;sensor_type;location;lat;lon;timestamp;pressure;altitude;pressure_sealevel;temperature;humidity
30708;BME280;17458;48.958;8.284;2023-03-12T00:01:23;100097.97;;;3.29;61.53
30708;BME280;17458;48.958;8.284;2023-03-12T00:04:11;100087.91;;;3.23;61.43
30708;BME280;17458;48.958;8.284;2023-03-12T00:06:58;100088.16;;;3.14;61.88
30708;BME280;17458;48.958;8.284;2023-03-12T00:09:51;100091.34;;;3.22;62.24
30708;BME280;17458;48.958;8.284;2023-03-12T00:12:36;100089.28;;;3.30;62.15
30708;BME280;17458;48.958;8.284;2023-03-12T00:15:21;100086.31;;;3.25;62.65
30708;BME280;17458;48.958;8.284;2023-03-12T00:18:08;100085.50;;;3.26;62.49
30708;BME280;17458;48.958;8.284;2023-03-12T00:20:55;100080.84;;;3.10;62.18
30708;BME280;17458;48.958;8.284;2023-03-12T00:23:42;100093.50;;;3.16;62.24
30708;BME280;17458;48.958;8.284;2023-03-12T00:26:39;100088.50;;;3.19;62.89
30708;BME280;17458;48.958;8.284;2023-03-12T00:29:46;100085.63;;;3.16;63.41
30708;BME280;17458;48.958;8.284;2023-03-12T00:32:32;100088.50;;;3.19;63.58
30708;BME280;17458;48.958;8.284;2023-03-12T00:35:16;100087.81;;;3.22;63.41
30708;BME280;17458;48.958;8.284;2023-03-12T00:38:00;100087.34;;;3.27;63.59
30708;BME280;17458;48.958;8.284;2023-03-12T00:40:44;100073.53;;;3.30;62.88
30708;BME280;17458;48.958;8.284;2023-03-12T00:44:05;100078.88;;;3.43;63.01
30708;BME280;17458;48.958;8.284;2023-03-12T00:46:50;100079.25;;;3.12;63.44
30708;BME280;17458;48.958;8.284;2023-03-12T00:49:52;100079.47;;;3.27;63.45
30708;BME280;17458;48.958;8.284;2023-03-12T00:52:39;100084.16;;;3.31;63.63
30708;BME280;17458;48.958;8.284;2023-03-12T00:55:24;100091.34;;;3.34;63.53
30708;BME280;17458;48.958;8.284;2023-03-12T00:58:09;100080.94;;;3.47;63.17
30708;BME280;17458;48.958;8.284;2023-03-12T01:00:57;100088.22;;;3.51;63.44
30708;BME280;17458;48.958;8.284;2023-03-12T01:03:41;100081.09;;;3.37;63.53
30708;BME280;17458;48.958;8.284;2023-03-12T01:06:37;100089.38;;;3.54;63.68
30708;BME280;17458;48.958;8.284;2023-03-12T01:09:35;100081.25;;;3.51;63.53
30708;BME280;17458;48.958;8.284;2023-03-12T01:12:20;100092.22;;;3.58;63.62
30708;BME280;17458;48.958;8.284;2023-03-12T01:15:07;100095.06;;;3.61;63.45
30708;BME280;17458;48.958;8.284;2023-03-12T01:17:51;100089.50;;;3.44;62.85
30708;BME280;17458;48.958;8.284;2023-03-12T01:20:40;100087.13;;;3.36;63.05
30708;BME280;17458;48.958;8.284;2023-03-12T01:23:30;100096.91;;;3.38;63.40
30708;BME280;17458;48.958;8.284;2023-03-12T01:26:14;100096.22;;;3.41;63.37
30708;BME280;17458;48.958;8.284;2023-03-12T01:28:58;100090.44;;;3.33;63.36
30708;BME280;17458;48.958;8.284;2023-03-12T01:31:42;100088.03;;;3.25;63.33
30708;BME280;17458;48.958;8.284;2023-03-12T01:35:16;100082.44;;;3.32;63.49
30708;BME280;17458;48.958;8.284;2023-03-12T01:37:41;100088.94;;;3.25;63.27
30708;BME280;17458;48.958;8.284;2023-03-12T01:40:40;100082.78;;;3.36;63.89
30708;BME280;17458;48.958;8.284;2023-03-12T01:43:34;100087.00;;;3.34;63.57
30708;BME280;17458;48.958;8.284;2023-03-12T01:46:49;100091.22;;;3.44;63.35
30708;BME280;17458;48.958;8.284;2023-03-12T01:49:39;100083.59;;;3.35;63.68
30708;BME280;17458;48.958;8.284;2023-03-12T01:52:30;100085.72;;;3.41;63.96
30708;BME280;17458;48.958;8.284;2023-03-12T01:55:17;100081.63;;;3.44;63.72
30708;BME280;17458;48.958;8.284;2023-03-12T01:58:24;100063.91;;;3.53;63.57
30708;BME280;17458;48.958;8.284;2023-03-12T02:01:11;100058.91;;;3.45;64.29
30708;BME280;17458;48.958;8.284;2023-03-12T02:03:58;100060.88;;;3.36;64.08
30708;BME280;17458;48.958;8.284;2023-03-12T02:06:50;100067.84;;;3.35;64.20
30708;BME280;17458;48.958;8.284;2023-03-12T02:09:42;100062.47;;;3.45;64.01
30708;BME280;17458;48.958;8.284;2023-03-12T02:12:28;100065.31;;;3.48;63.93
30708;BME280;17458;48.958;8.284;2023-03-12T02:15:12;100055.94;;;3.40;63.93
30708;BME280;17458;48.958;8.284;2023-03-12T02:17:57;100061.53;;;3.45;64.55
30708;BME280;17458;48.958;8.284;2023-03-12T02:26:54;100055.25;;;3.54;64.66
30708;BME280;17458;48.958;8.284;2023-03-12T02:29:43;100050.34;;;3.59;64.83
30708;BME280;17458;48.958;8.284;2023-03-12T02:32:33;100046.41;;;3.77;65.31
30708;BME280;17458;48.958;8.284;2023-03-12T02:35:19;100041.03;;;3.76;64.44
30708;BME280;17458;48.958;8.284;2023-03-12T02:41:28;100030.16;;;3.83;64.10
30708;BME280;17458;48.958;8.284;2023-03-12T02:44:17;100049.22;;;3.80;63.68
30708;BME280;17458;48.958;8.284;2023-03-12T02:47:04;100042.47;;;3.84;63.63
30708;BME280;17458;48.958;8.284;2023-03-12T02:49:48;100039.63;;;3.81;63.82
30708;BME280;17458;48.958;8.284;2023-03-12T02:52:33;100050.97;;;3.68;64.05
30708;BME280;17458;48.958;8.284;2023-03-12T02:55:20;100054.69;;;3.83;64.01
30708;BME280;17458;48.958;8.284;2023-03-12T02:58:13;100058.59;;;3.88;63.54
30708;BME280;17458;48.958;8.284;2023-03-12T03:00:57;100059.91;;;3.95;63.24
30708;BME280;17458;48.958;8.284;2023-03-12T03:03:42;100043.91;;;4.04;63.71
30708;BME280;17458;48.958;8.284;2023-03-12T03:06:52;100044.00;;;4.05;63.29
30708;BME280;17458;48.958;8.284;2023-03-12T03:09:36;100036.06;;;4.17;63.81
30708;BME280;17458;48.958;8.284;2023-03-12T03:12:35;100034.50;;;4.32;63.27
30708;BME280;17458;48.958;8.284;2023-03-12T03:15:24;100038.34;;;4.37;62.83
30708;BME280;17458;48.958;8.284;2023-03-12T03:18:11;100027.03;;;4.38;63.41
30708;BME280;17458;48.958;8.284;2023-03-12T03:21:14;100027.69;;;4.47;63.51
30708;BME280;17458;48.958;8.284;2023-03-12T03:24:03;100025.09;;;4.74;62.85
30708;BME280;17458;48.958;8.284;2023-03-12T03:26:50;100020.84;;;4.76;62.50
30708;BME280;17458;48.958;8.284;2023-03-12T03:29:44;100023.84;;;4.69;63.30
30708;BME280;17458;48.958;8.284;2023-03-12T03:35:49;100015.88;;;4.67;63.97
30708;BME280;17458;48.958;8.284;2023-03-12T03:38:38;100010.09;;;4.59;63.46
30708;BME280;17458;48.958;8.284;2023-03-12T03:41:48;100012.09;;;4.63;61.83
30708;BME280;17458;48.958;8.284;2023-03-12T03:44:36;100018.19;;;4.62;60.89
30708;BME280;17458;48.958;8.284;2023-03-12T03:47:21;100012.09;;;4.63;60.10
30708;BME280;17458;48.958;8.284;2023-03-12T03:50:06;100013.03;;;4.77;58.98
30708;BME280;17458;48.958;8.284;2023-03-12T03:52:50;100011.03;;;4.73;58.98
30708;BME280;17458;48.958;8.284;2023-03-12T03:55:46;100013.03;;;4.77;59.01
30708;BME280;17458;48.958;8.284;2023-03-12T03:58:51;100002.13;;;4.84;58.69
30708;BME280;17458;48.958;8.284;2023-03-12T04:01:38;100008.78;;;4.92;57.29
30708;BME280;17458;48.958;8.284;2023-03-12T04:04:25;100016.19;;;4.72;58.54
30708;BME280;17458;48.958;8.284;2023-03-12T04:07:17;100014.47;;;4.85;58.07
30708;BME280;17458;48.958;8.284;2023-03-12T04:10:06;100016.78;;;4.81;58.38
30708;BME280;17458;48.958;8.284;2023-03-12T04:12:55;100021.56;;;4.86;58.15
30708;BME280;17458;48.958;8.284;2023-03-12T04:15:47;100023.59;;;4.90;58.01
30708;BME280;17458;48.958;8.284;2023-03-12T04:18:33;100013.78;;;5.01;57.71
30708;BME280;17458;48.958;8.284;2023-03-12T04:21:22;100020.66;;;4.86;58.33
30708;BME280;17458;48.958;8.284;2023-03-12T04:24:13;100035.31;;;4.95;58.19
30708;BME280;17458;48.958;8.284;2023-03-12T04:27:01;100042.72;;;4.88;58.57
30708;BME280;17458;48.958;8.284;2023-03-12T04:29:46;100034.00;;;4.76;59.84
30708;BME280;17458;48.958;8.284;2023-03-12T04:32:31;100036.00;;;4.67;60.64
30708;BME280;17458;48.958;8.284;2023-03-12T04:35:15;100034.91;;;4.63;61.76
30708;BME280;17458;48.958;8.284;2023-03-12T04:38:00;100031.41;;;4.13;63.68
30708;BME280;17458;48.958;8.284;2023-03-12T04:40:45;100039.06;;;4.35;63.29
30708;BME280;17458;48.958;8.284;2023-03-12T04:43:30;100041.75;;;4.48;63.79
30708;BME280;17458;48.958;8.284;2023-03-12T04:46:15;100038.69;;;4.55;64.18
30708;BME280;17458;48.958;8.284;2023-03-12T04:49:02;100035.28;;;4.56;64.62
30708;BME280;17458;48.958;8.284;2023-03-12T04:51:48;100032.97;;;4.60;64.18
30708;BME280;17458;48.958;8.284;2023-03-12T04:54:33;100027.31;;;4.81;63.96
30708;BME280;17458;48.958;8.284;2023-03-12T04:57:18;100025.50;;;4.93;64.19
30708;BME280;17458;48.958;8.284;2023-03-12T05:00:03;100026.50;;;4.82;63.21
30708;BME280;17458;48.958;8.284;2023-03-12T05:02:53;100024.84;;;4.57;62.68
30708;BME280;17458;48.958;8.284;2023-03-12T05:05:38;100025.91;;;4.73;63.87
30708;BME280;17458;48.958;8.284;2023-03-12T05:08:22;100024.09;;;4.85;63.50
30708;BME280;17458;48.958;8.284;2023-03-12T05:11:07;100017.81;;;4.96;63.87
30708;BME280;17458;48.958;8.284;2023-03-12T05:13:52;100017.09;;;4.98;63.59
30708;BME280;17458;48.958;8.284;2023-03-12T05:16:40;100014.78;;;5.03;62.76
30708;BME280;17458;48.958;8.284;2023-03-12T05:19:27;100012.16;;;5.03;63.13
30708;BME280;17458;48.958;8.284;2023-03-12T05:22:11;100011.84;;;5.12;63.47
30708;BME280;17458;48.958;8.284;2023-03-12T05:24:56;100008.41;;;5.13;63.80
30708;BME280;17458;48.958;8.284;2023-03-12T05:27:40;100007.59;;;5.01;64.59
30708;BME280;17458;48.958;8.284;2023-03-12T05:30:25;100010.00;;;5.11;63.86
30708;BME280;17458;48.958;8.284;2023-03-12T05:33:09;100012.94;;;5.28;63.26
30708;BME280;17458;48.958;8.284;2023-03-12T05:35:54;100007.81;;;5.17;64.39
30708;BME280;17458;48.958;8.284;2023-03-12T05:38:39;99999.59;;;4.99;65.47
30708;BME280;17458;48.958;8.284;2023-03-12T05:41:28;99989.78;;;4.83;66.00
30708;BME280;17458;48.958;8.284;2023-03-12T05:44:17;99997.19;;;4.89;65.58
30708;BME280;17458;48.958;8.284;2023-03-12T05:47:07;99994.94;;;4.69;64.93
30708;BME280;17458;48.958;8.284;2023-03-12T05:49:51;99994.44;;;4.74;64.55
30708;BME280;17458;48.958;8.284;2023-03-12T05:52:36;99993.41;;;4.59;65.85
30708;BME280;17458;48.958;8.284;2023-03-12T05:55:20;99981.78;;;4.95;64.84
30708;BME280;17458;48.958;8.284;2023-03-12T05:58:06;99988.06;;;4.71;65.04
30708;BME280;17458;48.958;8.284;2023-03-12T06:00:51;99988.34;;;5.15;65.27
30708;BME280;17458;48.958;8.284;2023-03-12T06:03:35;99980.66;;;5.18;64.90
30708;BME280;17458;48.958;8.284;2023-03-12T06:06:19;99979.44;;;5.26;65.44
30708;BME280;17458;48.958;8.284;2023-03-12T06:09:04;99978.28;;;5.35;64.89
30708;BME280;17458;48.958;8.284;2023-03-12T06:11:49;99981.16;;;5.25;64.70
30708;BME280;17458;48.958;8.284;2023-03-12T06:14:33;99993.63;;;5.15;64.84
30708;BME280;17458;48.958;8.284;2023-03-12T06:17:18;99988.81;;;5.35;64.98
30708;BME280;17458;48.958;8.284;2023-03-12T06:20:02;99991.88;;;5.42;64.97
30708;BME280;17458;48.958;8.284;2023-03-12T06:22:48;99987.47;;;5.55;65.37
30708;BME280;17458;48.958;8.284;2023-03-12T06:25:33;99987.66;;;5.58;65.20
30708;BME280;17458;48.958;8.284;2023-03-12T06:28:17;99994.44;;;4.87;66.35
30708;BME280;17458;48.958;8.284;2023-03-12T06:31:01;100011.34;;;5.17;66.74
30708;BME280;17458;48.958;8.284;2023-03-12T06:33:46;99999.19;;;5.19;67.11
30708;BME280;17458;48.958;8.284;2023-03-12T06:36:30;100011.06;;;5.54;66.23
30708;BME280;17458;48.958;8.284;2023-03-12T06:39:14;100002.94;;;5.64;65.40
30708;BME280;17458;48.958;8.284;2023-03-12T06:41:58;100006.78;;;5.69;64.94
30708;BME280;17458;48.958;8.284;2023-03-12T06:44:42;100007.16;;;5.47;65.21
30708;BME280;17458;48.958;8.284;2023-03-12T06:47:26;100000.75;;;5.57;65.43
30708;BME280;17458;48.958;8.284;2023-03-12T06:50:10;99993.75;;;5.85;64.98
30708;BME280;17458;48.958;8.284;2023-03-12T06:52:54;99992.06;;;6.14;64.71
30708;BME280;17458;48.958;8.284;2023-03-12T06:55:38;99989.06;;;6.22;63.84
30708;BME280;17458;48.958;8.284;2023-03-12T06:58:22;99992.50;;;6.21;64.35
30708;BME280;17458;48.958;8.284;2023-03-12T07:01:07;100000.19;;;5.62;64.40
30708;BME280;17458;48.958;8.284;2023-03-12T07:03:52;100001.88;;;5.34;66.42
30708;BME280;17458;48.958;8.284;2023-03-12T07:06:36;100001.16;;;5.50;66.06
30708;BME280;17458;48.958;8.284;2023-03-12T07:09:21;99998.81;;;5.54;65.32
30708;BME280;17458;48.958;8.284;2023-03-12T07:12:08;100004.13;;;5.41;65.98
30708;BME280;17458;48.958;8.284;2023-03-12T07:14:53;100010.59;;;5.20;67.22
30708;BME280;17458;48.958;8.284;2023-03-12T07:17:38;100015.59;;;4.89;68.43
30708;BME280;17458;48.958;8.284;2023-03-12T07:20:22;100015.25;;;5.37;67.01
30708;BME280;17458;48.958;8.284;2023-03-12T07:23:07;100026.31;;;5.45;67.02
30708;BME280;17458;48.958;8.284;2023-03-12T07:25:51;100027.13;;;5.04;67.98
30708;BME280;17458;48.958;8.284;2023-03-12T07:28:36;100027.53;;;5.23;67.70
30708;BME280;17458;48.958;8.284;2023-03-12T07:31:20;100014.66;;;5.41;67.35
30708;BME280;17458;48.958;8.284;2023-03-12T07:34:05;100026.97;;;5.55;67.29
30708;BME280;17458;48.958;8.284;2023-03-12T07:36:49;100025.13;;;5.67;67.05
30708;BME280;17458;48.958;8.284;2023-03-12T07:39:34;100023.41;;;5.68;67.43
30708;BME280;17458;48.958;8.284;2023-03-12T07:42:18;100029.63;;;5.96;67.19
30708;BME280;17458;48.958;8.284;2023-03-12T07:45:04;100028.84;;;5.84;68.65
30708;BME280;17458;48.958;8.284;2023-03-12T07:47:51;100025.06;;;5.94;69.27
30708;BME280;17458;48.958;8.284;2023-03-12T07:50:36;100029.16;;;6.17;68.53
30708;BME280;17458;48.958;8.284;2023-03-12T07:53:24;100022.56;;;5.82;67.83
30708;BME280;17458;48.958;8.284;2023-03-12T07:56:07;100027.84;;;6.10;67.29
30708;BME280;17458;48.958;8.284;2023-03-12T07:58:52;100029.97;;;6.16;67.48
30708;BME280;17458;48.958;8.284;2023-03-12T08:01:36;100032.50;;;6.14;67.51
30708;BME280;17458;48.958;8.284;2023-03-12T08:04:20;100030.88;;;6.16;67.81
30708;BME280;17458;48.958;8.284;2023-03-12T08:07:05;100033.88;;;6.22;67.07
30708;BME280;17458;48.958;8.284;2023-03-12T08:09:49;100048.75;;;6.07;69.14
30708;BME280;17458;48.958;8.284;2023-03-12T08:12:33;100042.00;;;6.25;68.06
30708;BME280;17458;48.958;8.284;2023-03-12T08:15:17;100057.19;;;6.29;68.15
30708;BME280;17458;48.958;8.284;2023-03-12T08:18:03;100062.72;;;6.34;67.78
30708;BME280;17458;48.958;8.284;2023-03-12T08:20:52;100063.31;;;6.43;68.15
30708;BME280;17458;48.958;8.284;2023-03-12T08:23:37;100066.69;;;6.13;67.99
30708;BME280;17458;48.958;8.284;2023-03-12T08:26:21;100052.03;;;6.03;69.48
30708;BME280;17458;48.958;8.284;2023-03-12T08:29:06;100080.91;;;5.47;71.73
30708;BME280;17458;48.958;8.284;2023-03-12T08:31:52;100052.66;;;5.86;71.80
30708;BME280;17458;48.958;8.284;2023-03-12T08:34:37;100057.84;;;5.71;72.12
30708;BME280;17458;48.958;8.284;2023-03-12T08:37:21;100064.28;;;6.02;71.89
30708;BME280;17458;48.958;8.284;2023-03-12T08:40:06;100055.13;;;6.11;71.32
30708;BME280;17458;48.958;8.284;2023-03-12T08:42:56;100059.59;;;6.12;71.96
30708;BME280;17458;48.958;8.284;2023-03-12T08:45:40;100069.63;;;6.17;72.34
30708;BME280;17458;48.958;8.284;2023-03-12T08:48:25;100051.09;;;6.30;71.61
30708;BME280;17458;48.958;8.284;2023-03-12T08:51:09;100066.38;;;6.08;72.17
30708;BME280;17458;48.958;8.284;2023-03-12T08:53:53;100061.19;;;6.37;71.82
30708;BME280;17458;48.958;8.284;2023-03-12T08:56:38;100071.03;;;6.40;71.51
30708;BME280;17458;48.958;8.284;2023-03-12T08:59:25;100065.13;;;6.44;70.84
30708;BME280;17458;48.958;8.284;2023-03-12T09:02:12;100059.97;;;6.46;72.03
30708;BME280;17458;48.958;8.284;2023-03-12T09:04:56;100064.53;;;6.78;70.53
30708;BME280;17458;48.958;8.284;2023-03-12T09:07:40;100067.25;;;6.64;70.55
30708;BME280;17458;48.958;8.284;2023-03-12T09:10:24;100068.13;;;6.50;71.70
30708;BME280;17458;48.958;8.284;2023-03-12T09:13:09;100067.47;;;6.39;72.34
30708;BME280;17458;48.958;8.284;2023-03-12T09:15:58;100068.03;;;6.49;72.80
30708;BME280;17458;48.958;8.284;2023-03-12T09:18:43;100072.59;;;6.51;72.34
30708;BME280;17458;48.958;8.284;2023-03-12T09:21:27;100065.44;;;6.78;71.33
30708;BME280;17458;48.958;8.284;2023-03-12T09:24:11;100063.69;;;6.64;72.48
30708;BME280;17458;48.958;8.284;2023-03-12T09:26:55;100064.81;;;6.82;72.15
30708;BME280;17458;48.958;8.284;2023-03-12T09:29:40;100071.25;;;7.02;71.57
30708;BME280;17458;48.958;8.284;2023-03-12T09:32:24;100075.25;;;7.25;71.42
30708;BME280;17458;48.958;8.284;2023-03-12T09:35:11;100076.91;;;7.23;72.10
30708;BME280;17458;48.958;8.284;2023-03-12T09:37:57;100076.59;;;7.47;70.95
30708;BME280;17458;48.958;8.284;2023-03-12T09:40:47;100084.09;;;6.96;72.67
30708;BME280;17458;48.958;8.284;2023-03-12T09:43:36;100084.53;;;6.89;73.18
30708;BME280;17458;48.958;8.284;2023-03-12T09:46:29;100079.66;;;6.95;73.60
30708;BME280;17458;48.958;8.284;2023-03-12T09:49:33;100069.03;;;7.54;73.72
30708;BME280;17458;48.958;8.284;2023-03-12T09:52:58;100076.31;;;7.58;72.80
30708;BME280;17458;48.958;8.284;2023-03-12T09:55:48;100082.00;;;7.65;73.01
30708;BME280;17458;48.958;8.284;2023-03-12T09:58:34;100082.06;;;7.81;73.19
30708;BME280;17458;48.958;8.284;2023-03-12T10:04:27;100094.66;;;8.99;78.49
30708;BME280;17458;48.958;8.284;2023-03-12T10:07:31;100095.81;;;12.81;76.38
30708;BME280;17458;48.958;8.284;2023-03-12T10:22:27;100099.38;;;10.87;66.23
30708;BME280;17458;48.958;8.284;2023-03-12T10:25:28;100105.75;;;10.33;69.40
30708;BME280;17458;48.958;8.284;2023-03-12T10:28:18;100097.06;;;9.46;72.97
30708;BME280;17458;48.958;8.284;2023-03-12T10:31:06;100085.06;;;10.08;71.80
30708;BME280;17458;48.958;8.284;2023-03-12T10:34:00;100091.91;;;10.20;73.67
30708;BME280;17458;48.958;8.284;2023-03-12T10:36:44;100091.91;;;10.20;74.16
30708;BME280;17458;48.958;8.284;2023-03-12T10:39:29;100093.31;;;10.32;75.12
30708;BME280;17458;48.958;8.284;2023-03-12T10:42:20;100090.16;;;10.21;75.00
30708;BME280;17458;48.958;8.284;2023-03-12T10:47:58;100086.78;;;11.44;71.75
30708;BME280;17458;48.958;8.284;2023-03-12T10:50:59;100086.22;;;11.30;72.04
30708;BME280;17458;48.958;8.284;2023-03-12T10:53:44;100077.50;;;11.13;73.00
30708;BME280;17458;48.958;8.284;2023-03-12T10:56:48;100079.06;;;11.29;74.33
30708;BME280;17458;48.958;8.284;2023-03-12T10:59:36;100082.00;;;11.77;72.99
30708;BME280;17458;48.958;8.284;2023-03-12T11:02:30;100075.25;;;12.07;71.84
30708;BME280;17458;48.958;8.284;2023-03-12T11:08:03;100067.31;;;11.86;72.20
30708;BME280;17458;48.958;8.284;2023-03-12T11:11:02;100071.41;;;12.45;72.01
30708;BME280;17458;48.958;8.284;2023-03-12T11:14:05;100068.69;;;12.21;72.74
30708;BME280;17458;48.958;8.284;2023-03-12T11:16:51;100070.41;;;12.43;72.38
30708;BME280;17458;48.958;8.284;2023-03-12T11:19:35;100073.59;;;12.11;73.51
30708;BME280;17458;48.958;8.284;2023-03-12T11:22:29;100077.22;;;12.35;73.41
30708;BME280;17458;48.958;8.284;2023-03-12T11:25:26;100066.53;;;12.57;72.94
30708;BME280;17458;48.958;8.284;2023-03-12T11:28:17;100073.94;;;12.42;73.58
30708;BME280;17458;48.958;8.284;2023-03-12T11:31:07;100072.84;;;12.37;73.25
30708;BME280;17458;48.958;8.284;2023-03-12T11:34:02;100074.56;;;12.83;72.77
30708;BME280;17458;48.958;8.284;2023-03-12T11:37:09;100092.94;;;13.49;71.09
30708;BME280;17458;48.958;8.284;2023-03-12T11:49:08;100064.97;;;14.47;67.03
30708;BME280;17458;48.958;8.284;2023-03-12T11:55:00;100077.03;;;14.35;66.42
30708;BME280;17458;48.958;8.284;2023-03-12T12:03:43;100075.09;;;14.29;67.27
30708;BME280;17458;48.958;8.284;2023-03-12T12:06:44;100068.03;;;14.31;68.23
30708;BME280;17458;48.958;8.284;2023-03-12T12:15:38;100034.25;;;14.95;67.81
30708;BME280;17458;48.958;8.284;2023-03-12T12:21:41;100044.59;;;15.48;66.59
30708;BME280;17458;48.958;8.284;2023-03-12T12:24:44;100040.97;;;15.46;66.30
30708;BME280;17458;48.958;8.284;2023-03-12T12:28:12;100048.97;;;15.79;65.56
30708;BME280;17458;48.958;8.284;2023-03-12T12:36:34;100040.81;;;15.40;65.58
30708;BME280;17458;48.958;8.284;2023-03-12T12:42:22;100041.56;;;16.07;63.48
30708;BME280;17458;48.958;8.284;2023-03-12T12:45:12;100043.16;;;15.97;62.04
30708;BME280;17458;48.958;8.284;2023-03-12T12:50:46;100028.56;;;14.82;62.75
30708;BME280;17458;48.958;8.284;2023-03-12T12:57:06;100039.47;;;15.23;62.31
30708;BME280;17458;48.958;8.284;2023-03-12T13:02:55;100027.84;;;14.57;63.47
30708;BME280;17458;48.958;8.284;2023-03-12T13:05:52;100037.53;;;14.53;63.65
30708;BME280;17458;48.958;8.284;2023-03-12T13:11:37;100023.50;;;14.93;64.06
30708;BME280;17458;48.958;8.284;2023-03-12T13:14:35;100012.72;;;15.56;62.97
30708;BME280;17458;48.958;8.284;2023-03-12T13:17:35;100025.84;;;15.83;61.97
30708;BME280;17458;48.958;8.284;2023-03-12T13:21:00;100025.88;;;15.84;62.08
30708;BME280;17458;48.958;8.284;2023-03-12T13:24:03;100021.25;;;15.77;61.79
30708;BME280;17458;48.958;8.284;2023-03-12T13:29:41;100023.69;;;15.67;61.52
30708;BME280;17458;48.958;8.284;2023-03-12T13:38:51;99998.34;;;15.90;60.82
30708;BME280;17458;48.958;8.284;2023-03-12T13:41:09;99991.28;;;15.93;60.38
30708;BME280;17458;48.958;8.284;2023-03-12T13:43:53;99993.28;;;16.04;57.73
30708;BME280;17458;48.958;8.284;2023-03-12T13:46:39;99983.00;;;16.23;57.03
30708;BME280;17458;48.958;8.284;2023-03-12T13:49:24;99994.50;;;16.18;56.65
30708;BME280;17458;48.958;8.284;2023-03-12T13:55:18;99997.03;;;16.10;55.74
30708;BME280;17458;48.958;8.284;2023-03-12T13:58:13;99999.63;;;16.49;56.19
30708;BME280;17458;48.958;8.284;2023-03-12T14:01:06;99993.13;;;16.37;55.60
30708;BME280;17458;48.958;8.284;2023-03-12T14:04:19;100000.06;;;16.27;56.09
30708;BME280;17458;48.958;8.284;2023-03-12T14:07:42;100002.00;;;15.93;56.36
30708;BME280;17458;48.958;8.284;2023-03-12T14:10:39;99992.81;;;16.23;56.43
30708;BME280;17458;48.958;8.284;2023-03-12T14:16:34;99992.50;;;16.50;54.99
30708;BME280;17458;48.958;8.284;2023-03-12T14:19:25;99998.69;;;16.05;54.73
30708;BME280;17458;48.958;8.284;2023-03-12T14:22:12;100000.38;;;16.02;55.23
30708;BME280;17458;48.958;8.284;2023-03-12T14:24:59;99991.09;;;15.50;55.43
30708;BME280;17458;48.958;8.284;2023-03-12T14:27:46;99998.28;;;15.88;54.38
30708;BME280;17458;48.958;8.284;2023-03-12T14:33:15;100006.13;;;15.79;54.42
30708;BME280;17458;48.958;8.284;2023-03-12T14:36:11;100007.31;;;15.92;54.07
30708;BME280;17458;48.958;8.284;2023-03-12T14:39:14;100002.75;;;15.88;53.76
30708;BME280;17458;48.958;8.284;2023-03-12T14:42:03;100011.53;;;15.81;53.47
30708;BME280;17458;48.958;8.284;2023-03-12T14:45:09;99999.66;;;16.09;52.87
30708;BME280;17458;48.958;8.284;2023-03-12T14:47:57;100001.53;;;16.13;52.47
30708;BME280;17458;48.958;8.284;2023-03-12T14:50:41;100004.94;;;16.46;52.36
30708;BME280;17458;48.958;8.284;2023-03-12T14:53:29;100011.63;;;16.24;52.13
30708;BME280;17458;48.958;8.284;2023-03-12T14:56:26;100002.41;;;16.54;51.74
30708;BME280;17458;48.958;8.284;2023-03-12T14:59:33;100014.09;;;16.57;51.99
30708;BME280;17458;48.958;8.284;2023-03-12T15:02:20;100002.16;;;16.42;52.09
30708;BME280;17458;48.958;8.284;2023-03-12T15:05:15;100007.53;;;16.43;52.88
30708;BME280;17458;48.958;8.284;2023-03-12T15:08:02;99998.00;;;16.14;52.85
30708;BME280;17458;48.958;8.284;2023-03-12T15:10:56;99997.97;;;16.54;52.10
30708;BME280;17458;48.958;8.284;2023-03-12T15:13:41;99985.44;;;16.53;52.24
30708;BME280;17458;48.958;8.284;2023-03-12T15:16:25;99989.34;;;16.28;52.22
30708;BME280;17458;48.958;8.284;2023-03-12T15:19:23;99988.22;;;16.59;51.76
30708;BME280;17458;48.958;8.284;2023-03-12T15:22:16;99981.81;;;16.51;51.49
30708;BME280;17458;48.958;8.284;2023-03-12T15:25:02;99982.91;;;15.78;52.94
30708;BME280;17458;48.958;8.284;2023-03-12T15:27:48;99971.50;;;15.88;51.91
30708;BME280;17458;48.958;8.284;2023-03-12T15:30:33;99966.78;;;15.77;52.36
30708;BME280;17458;48.958;8.284;2023-03-12T15:36:02;99970.25;;;15.73;52.69
30708;BME280;17458;48.958;8.284;2023-03-12T15:38:56;99983.31;;;15.57;52.58
30708;BME280;17458;48.958;8.284;2023-03-12T15:41:45;99975.78;;;15.44;52.22
30708;BME280;17458;48.958;8.284;2023-03-12T15:44:43;99983.34;;;15.60;52.43
30708;BME280;17458;48.958;8.284;2023-03-12T15:47:30;99979.75;;;15.58;53.08
30708;BME280;17458;48.958;8.284;2023-03-12T15:50:33;99976.69;;;15.79;52.10
30708;BME280;17458;48.958;8.284;2023-03-12T15:58:59;99984.31;;;15.63;52.27
30708;BME280;17458;48.958;8.284;2023-03-12T16:01:49;99973.56;;;15.61;51.75
30708;BME280;17458;48.958;8.284;2023-03-12T16:04:33;99974.69;;;15.71;51.47
30708;BME280;17458;48.958;8.284;2023-03-12T16:07:17;99975.00;;;15.48;51.35
30708;BME280;17458;48.958;8.284;2023-03-12T16:10:02;99987.84;;;15.62;51.63
30708;BME280;17458;48.958;8.284;2023-03-12T16:12:48;99979.97;;;15.68;51.27
30708;BME280;17458;48.958;8.284;2023-03-12T16:15:37;99969.75;;;15.89;50.86
30708;BME280;17458;48.958;8.284;2023-03-12T16:18:22;99972.03;;;15.72;51.24
30708;BME280;17458;48.958;8.284;2023-03-12T16:21:06;99967.97;;;15.89;50.72
30708;BME280;17458;48.958;8.284;2023-03-12T16:23:51;99965.81;;;15.73;51.23
30708;BME280;17458;48.958;8.284;2023-03-12T16:26:36;99964.63;;;15.98;50.86
30708;BME280;17458;48.958;8.284;2023-03-12T16:29:30;99949.00;;;15.79;51.56
30708;BME280;17458;48.958;8.284;2023-03-12T16:32:16;99952.06;;;15.95;50.92
30708;BME280;17458;48.958;8.284;2023-03-12T16:35:00;99952.72;;;15.85;51.26
30708;BME280;17458;48.958;8.284;2023-03-12T16:37:45;99950.78;;;15.42;52.13
30708;BME280;17458;48.958;8.284;2023-03-12T16:40:32;99946.75;;;15.58;52.31
30708;BME280;17458;48.958;8.284;2023-03-12T16:43:19;99947.88;;;15.33;52.61